1970 Tropical Low CINDY (1970071S11155)


IBTrACS version v04r00. Visit IBTrACS website for data access.
Please direct all questions to the IBTrACS Q and A forum

Storm track - Intensity - Wind Radii - Intensity Data - Source Data - All data

Summary Information

Storm ID 1970071S11155
Start Mar 11 20Z
Landfall Mar 13 09Z, Mar 15 00Z, Mar 17 03Z, Mar 17 23Z, Mar 21 17Z
Max Intensity 25 kt (Mar 21 00Z), 995 mb (Mar 17 06Z)
End Mar 22 17Z
ATCF IDs ,SH231970,SH251970
Track status Best track data.

Storm track plot

Map of storm track

Intensity plots

Map of storm track

Radial wind information

No radial wind information for this storm


Position and Intensity Table

BASIN ISO_TIME_________ NATURE LAT LON WMO PRES USA WIND BOM PRES DS824 WIND TD9636 WIND NEUMANN WIND NEUMANN PRES
degrees north degrees east mb kts mb kts kts kts mb
SP 1970-03-11 20:00:00 NR -11.00 154.80 5
SP 21:00:00 NR -10.92 154.69 5
SP 1970-03-12 00:00:00 TS -10.64 154.38 5 5 6
SP 03:00:00 TS -10.38 154.04 7 7 7
SP 06:00:00 TS -10.10 153.68 10 10 9
SP 08:00:00 TS -9.90 153.41 10 10 10
SP 09:00:00 TS -9.80 153.27 10 10 10
SP 12:00:00 TS -9.49 152.81 10 10 10
SP 15:00:00 TS -9.20 152.37 10 10 10
SP 18:00:00 TS -8.99 151.91 10 10 10
SP 20:00:00 TS -8.88 151.58 10 10 10
SP 21:00:00 TS -8.84 151.42 10 10 9
SP 1970-03-13 00:00:00 TS -8.84 150.92 10 10 8
SP 03:00:00 TS -9.05 150.42 7 7 7
SP 06:00:00 TS -9.39 149.91 5 5 5
SP 08:00:00 TS -9.63 149.58 5 5 5
SP 09:00:00 TS -9.76 149.41 5 5 5
SP 12:00:00 TS -10.19 148.91 5 5 8
SP 15:00:00 TS -10.70 148.41 10 10 10
SP 18:00:00 TS -11.20 147.91 15 15 13
SP 20:00:00 TS -11.50 147.58 15 15 15
SP 21:00:00 TS -11.63 147.41 15 15 15
SP 1970-03-14 00:00:00 TS -11.99 146.89 15 15 16
SP 03:00:00 TS -12.28 146.33 17 17 17
SP 06:00:00 TS -12.49 145.81 20 20 19
SP 08:00:00 TS -12.60 145.50 20 20 20
SP 09:00:00 TS -12.64 145.37 20 20 20
SP 12:00:00 TS -12.72 144.99 20 20 20
SP 15:00:00 TS -12.78 144.64 20 20 20
SP 18:00:00 TS -12.82 144.28 20 20 20
SP 20:00:00 TS -12.88 144.01 20 20 20
SP 21:00:00 TS -12.91 143.86 20 20 19
SP 1970-03-15 00:00:00 TS -12.99 143.41 20 20 18
SP 03:00:00 TS -13.05 142.95 17 17 17
SP 06:00:00 TS -13.11 142.50 15 15 15
SP 08:00:00 TS -13.19 142.20 15 15 15
SP 09:00:00 TS -13.24 142.05 15 15 15
SP 12:00:00 TS -13.40 141.61 15 15 15
SP 15:00:00 TS -13.56 141.20 15 15 15
SP 18:00:00 TS -13.71 140.79 15 15 15
SP 20:00:00 TS -13.79 140.50 15 15 15
SP 21:00:00 TS -13.82 140.35 15 15 15
SP 23:00:00 TS -13.86 140.04 1004 15 1004 15 16
SP 1970-03-16 00:00:00 TS -13.84 139.90 15 15 16 15 1006
SP 03:00:00 TS -13.83 139.52 17 17 17 15 1006
SP 06:00:00 TS -13.82 139.15 20 20 19 15 1006
SP 08:00:00 TS -13.83 138.91 20 20 20 15 1006
SP 09:00:00 TS -13.85 138.78 20 20 19 15 1006
SP 11:00:00 TS -13.89 138.53 20 20 18 15 1006
SP 12:00:00 TS -13.91 138.40 20 20 18 15 1006
SP 15:00:00 TS -13.99 138.04 17 17 17 15 1006
SP 18:00:00 TS -14.07 137.70 15 15 15 15 1006
SP 20:00:00 TS -14.12 137.47 15 15 15 15 1006
SP 21:00:00 TS -14.14 137.37 15 15 15 15 1006
SP 23:30:00 TS -14.19 137.13 1002 15 1002 15 16 15 1006
SP 1970-03-17 00:00:00 TS -14.20 137.09 15 1001 15 16 15 1006
SP 03:00:00 TS -14.25 136.92 17 998 17 17 15 1006
SP 05:00:00 TS -14.28 136.82 996 19 996 19 18 15 1006
SP 06:00:00 TS -14.31 136.76 20 995 20 19 15 1006
SP 08:00:00 TS -14.37 136.63 20 995 20 20 15 1006
SP 09:00:00 TS -14.41 136.56 20 995 20 20 15 1006
SP 11:30:00 TS -14.53 136.37 20 995 20 20 15 1006
SP 12:00:00 TS -14.56 136.33 20 995 20 20 15 1006
SP 14:00:00 TS -14.66 136.18 995 20 995 20 20 15 1006
SP 15:00:00 TS -14.72 136.10 20 995 20 20 15 1006
SP 18:00:00 TS -14.88 135.85 20 996 20 20 15 1006
SP 20:00:00 TS -14.96 135.67 20 997 20 20 16 1006
SP 21:00:00 TS -14.98 135.57 20 997 20 20 17 1006
SP 23:30:00 TS -15.05 135.37 20 998 20 20 19 1006
SP 1970-03-18 00:00:00 TS -15.07 135.34 20 998 20 20 20 1006
SP 02:00:00 TS -15.13 135.23 999 20 999 20 20 20 1006
SP 03:00:00 TS -15.17 135.19 20 20 20 20 1006
SP 06:00:00 TS -15.25 135.14 20 20 20 20 1006
SP 08:00:00 TS -15.31 135.17 20 20 20 20 1006
SP 09:00:00 TS -15.35 135.21 20 20 19 20 1006
SP 11:30:00 TS -15.43 135.34 20 20 18 20 1006
SP 12:00:00 TS -15.45 135.37 20 20 18 20 1006
SP 15:00:00 TS -15.54 135.54 17 17 17 20 1006
SP 18:00:00 TS -15.63 135.74 15 15 15 20 1006
SP 20:00:00 TS -15.69 135.88 1000 15 1000 15 15 18 1006
SP 21:00:00 TS -15.71 135.94 15 1000 15 15 17 1006
SP 23:30:00 TS -15.75 136.10 15 1000 15 15 15 1006
SP 1970-03-19 00:00:00 TS -15.74 136.13 15 1000 15 15 15 1006
SP 02:00:00 TS -15.70 136.24 1000 15 1000 15 15 15 1006
SP 03:00:00 TS -15.67 136.30 15 15 15 15 1006
SP 05:00:00 TS -15.61 136.40 15 15 15 15 1006
SP 06:00:00 TS -15.58 136.46 15 15 15 15 1006
SP 08:00:00 TS -15.53 136.59 15 15 15 15 1006
SP 09:00:00 TS -15.51 136.65 15 15 15 15 1006
SP 11:30:00 TS -15.46 136.81 15 15 15 15 1006
SP 12:00:00 TS -15.45 136.84 15 15 15 15 1006
SP 15:00:00 TS -15.35 137.03 15 15 15 15 1006
SP 18:00:00 TS -15.27 137.20 15 15 15 15 1006
SP 20:00:00 TS -15.25 137.30 15 15 15 15 1006
SP 21:00:00 TS -15.24 137.35 15 15 15 15 1006
SP 23:30:00 TS -15.24 137.47 15 15 16 15 1006
SP 1970-03-20 00:00:00 TS -15.25 137.50 15 15 16 15 1006
SP 02:00:00 TS -15.26 137.59 999 16 999 16 17 15 1006
SP 03:00:00 TS -15.28 137.64 17 17 17 15 1006
SP 05:00:00 TS -15.33 137.77 19 19 18 15 1006
SP 06:00:00 TS -15.36 137.89 20 20 19 15 1006
SP 08:00:00 TS -15.45 138.10 20 20 20 15 1006
SP 09:00:00 TS -15.50 138.23 20 20 19 15 1006
SP 11:00:00 TS -15.60 138.44 20 20 17 15 1006
SP 12:00:00 TS -15.63 138.52 20 20 16 15 1006
SP 15:00:00 TS -15.76 138.83 17 17 14 15 1006
SP 17:00:00 TS -15.89 139.13 15 15 12 15 1006
SP 18:00:00 TS -16.01 139.39 15 15 11 15 1006
SP 20:00:00 TS -16.21 139.79 18 10 15 1006
SP 21:00:00 TS -16.29 139.97 20 15 1006
SP 23:00:00 TS -16.34 140.10 23 15 1006
SP 1970-03-21 00:00:00 TS -16.32 140.13 25 15 1006
SP 03:00:00 TS -16.33 140.28 25
SP 05:00:00 TS -16.31 140.42 25
SP 06:00:00 TS -16.29 140.49 25
SP 09:00:00 TS -16.21 140.74 22
SP 12:00:00 TS -16.10 141.01 20
SP 15:00:00 TS -15.99 141.30 17
SP 17:00:00 TS -15.92 141.50 15
SP 18:00:00 TS -15.89 141.59 15
SP 21:00:00 TS -15.83 141.84 15
SP 1970-03-22 00:00:00 TS -15.78 142.08 15
SP 03:00:00 TS -15.72 142.32 15
SP 05:00:00 TS -15.70 142.50 15
SP 06:00:00 TS -15.70 142.61 15
SP 09:00:00 TS -15.73 142.98 15
SP 12:00:00 TS -15.79 143.41 15
SP 15:00:00 NR -15.85 143.89
SP 17:00:00 NR -15.90 144.20

Source Information

Agency Information
USA bsh231970.txt::bsh251970.txt
TOKYO
CMA
HKO
NEWDELHI
REUNION
BOM IDCKMSTM0S.csv:Line=5608:CINDY
NADI
WELLINGTON
DS824 s_hem.dat:1126:23P
TD9636 cons_worldwide_trop_cyclone_18710101-19891231-006:Line=8428
TD9635
NEUMANN tracks.sh:Storm=272:CINDY:BSH2570:BM388
MLC

All available IBTrACS Data

SEASON BASIN SUBBASIN ISO_TIME_________ NATURE LAT LON WMO PRES WMO AGENCY DIST2LAND LANDFALL IFLAG USA AGENCY USA ATCF_ID USA LAT USA LON USA WIND USA SSHS BOM LAT BOM LON BOM PRES BOM PRES_METHOD DS824 LAT DS824 LON DS824 STAGE DS824 WIND TD9636 LAT TD9636 LON TD9636 STAGE TD9636 WIND NEUMANN LAT NEUMANN LON NEUMANN CLASS NEUMANN WIND NEUMANN PRES STORM SPEED STORM DIR
Year degrees north degrees east mb km km degrees north degrees east kts 1 degrees north degrees east mb degrees north degrees east kts degrees north degrees east kts degrees north degrees east kts mb kts degrees
1970 SP EA 1970-03-11 20:00:00 NR -11.00 154.80 400 400 __________O___ -1 -11.00 154.80 1 5 8 308
1970 SP EA 21:00:00 NR -10.92 154.69 400 399 __________P___ -1 -10.92 154.69 1 5 8 311
1970 SP EA 1970-03-12 00:00:00 TS -10.64 154.38 401 372 O________OP___ jtwc_sh SH231970 -10.60 154.40 5 -1 -10.60 154.40 TC 5 -10.66 154.36 1 6 8 310
1970 SP EA 03:00:00 TS -10.38 154.04 361 328 P________PP___ SH231970 -10.36 154.07 7 -1 -10.36 154.07 TC 7 -10.39 154.02 1 7 9 308
1970 SP EA 06:00:00 TS -10.10 153.68 329 299 O________OP___ jtwc_sh SH231970 -10.10 153.70 10 -1 -10.10 153.70 TC 10 -10.11 153.66 1 9 9 307
1970 SP EA 08:00:00 TS -9.90 153.41 299 290 P________PO___ SH231970 -9.90 153.42 10 -1 -9.90 153.42 TC 10 -9.90 153.40 1 10 10 307
1970 SP EA 09:00:00 TS -9.80 153.27 290 247 P________PP___ SH231970 -9.80 153.26 10 -1 -9.80 153.26 TC 10 -9.79 153.27 1 10 11 305
1970 SP EA 12:00:00 TS -9.49 152.81 247 223 O________OP___ jtwc_sh SH231970 -9.50 152.80 10 -1 -9.50 152.80 TC 10 -9.47 152.84 1 10 11 304
1970 SP EA 15:00:00 TS -9.20 152.37 223 196 P________PP___ SH231970 -9.22 152.36 10 -1 -9.22 152.36 TC 10 -9.17 152.39 1 10 10 299
1970 SP EA 18:00:00 TS -8.99 151.91 196 182 O________OP___ jtwc_sh SH231970 -9.00 151.90 10 -1 -9.00 151.90 TC 10 -8.97 151.92 1 10 10 293
1970 SP EA 20:00:00 TS -8.88 151.58 182 174 P________PO___ SH231970 -8.87 151.57 10 -1 -8.87 151.57 TC 10 -8.90 151.60 1 10 10 287
1970 SP EA 21:00:00 TS -8.84 151.42 174 133 P________PP___ SH231970 -8.82 151.41 10 -1 -8.82 151.41 TC 10 -8.89 151.44 1 9 10 273
1970 SP EA 1970-03-13 00:00:00 TS -8.84 150.92 133 85 O________OP___ jtwc_sh SH231970 -8.80 150.90 10 -1 -8.80 150.90 TC 10 -8.93 150.95 1 8 10 258
1970 SP EA 03:00:00 TS -9.05 150.42 74 35 P________PP___ SH231970 -9.02 150.40 7 -1 -9.02 150.40 TC 7 -9.10 150.45 1 7 11 241
1970 SP EA 06:00:00 TS -9.39 149.91 35 10 O________OP___ jtwc_sh SH231970 -9.40 149.90 5 -1 -9.40 149.90 TC 5 -9.37 149.94 1 5 12 235
1970 SP EA 08:00:00 TS -9.63 149.58 10 0 P________PO___ SH231970 -9.64 149.57 5 -1 -9.64 149.57 TC 5 -9.60 149.60 1 5 12 234
1970 SP EA 09:00:00 TS -9.76 149.41 0 0 P________PP___ SH231970 -9.77 149.40 5 -1 -9.77 149.40 TC 5 -9.73 149.43 1 5 13 229
1970 SP EA 12:00:00 TS -10.19 148.91 0 0 O________OP___ jtwc_sh SH231970 -10.20 148.90 5 -1 -10.20 148.90 TC 5 -10.18 148.94 1 8 14 226
1970 SP EA 15:00:00 TS -10.70 148.41 56 56 P________PP___ SH231970 -10.70 148.40 10 -1 -10.70 148.40 TC 10 -10.69 148.44 1 10 14 224
1970 SP EA 18:00:00 TS -11.20 147.91 112 112 O________OP___ jtwc_sh SH231970 -11.20 147.90 15 -1 -11.20 147.90 TC 15 -11.20 147.94 1 13 14 226
1970 SP EA 20:00:00 TS -11.50 147.58 152 152 P________PO___ SH231970 -11.50 147.57 15 -1 -11.50 147.57 TC 15 -11.50 147.60 1 15 13 228
1970 SP EA 21:00:00 TS -11.63 147.41 169 169 P________PP___ SH231970 -11.64 147.41 15 -1 -11.64 147.41 TC 15 -11.63 147.42 1 15 13 234
1970 SP EA 1970-03-14 00:00:00 TS -11.99 146.89 230 230 O________OP___ jtwc_sh SH231970 -12.00 146.90 15 -1 -12.00 146.90 TC 15 -11.97 146.88 1 16 12 238
1970 SP EA 03:00:00 TS -12.28 146.33 289 245 P________PP___ SH231970 -12.30 146.33 17 -1 -12.30 146.33 TC 17 -12.26 146.33 1 17 12 245
1970 SP EA 06:00:00 TS -12.49 145.81 245 218 O________OP___ jtwc_sh SH231970 -12.50 145.80 20 -1 -12.50 145.80 TC 20 -12.48 145.82 1 19 10 249
1970 SP EA 08:00:00 TS -12.60 145.50 218 208 P________PO___ SH231970 -12.60 145.50 20 -1 -12.60 145.50 TC 20 -12.60 145.50 1 20 9 252
1970 SP EA 09:00:00 TS -12.64 145.37 208 164 P________PP___ SH231970 -12.63 145.37 20 -1 -12.63 145.37 TC 20 -12.65 145.36 1 20 8 256
1970 SP EA 12:00:00 TS -12.72 144.99 164 130 O________OP___ jtwc_sh SH231970 -12.70 145.00 20 -1 -12.70 145.00 TC 20 -12.76 144.97 1 20 7 259
1970 SP EA 15:00:00 TS -12.78 144.64 119 87 P________PP___ SH231970 -12.75 144.66 20 -1 -12.75 144.66 TC 20 -12.83 144.61 1 20 7 262
1970 SP EA 18:00:00 TS -12.82 144.28 87 54 O________OP___ jtwc_sh SH231970 -12.80 144.30 20 -1 -12.80 144.30 TC 20 -12.87 144.25 1 20 7 261
1970 SP EA 20:00:00 TS -12.88 144.01 54 43 P________PO___ SH231970 -12.86 144.02 20 -1 -12.86 144.02 TC 20 -12.90 144.00 1 20 8 258
1970 SP EA 21:00:00 TS -12.91 143.86 43 0 P________PP___ SH231970 -12.90 143.87 20 -1 -12.90 143.87 TC 20 -12.92 143.86 1 19 9 259
1970 SP EA 1970-03-15 00:00:00 TS -12.99 143.41 0 0 O________OP___ jtwc_sh SH231970 -13.00 143.40 20 -1 -13.00 143.40 TC 20 -12.98 143.42 1 18 9 261
1970 SP EA 03:00:00 TS -13.05 142.95 0 0 P________PP___ SH231970 -13.04 142.95 17 -1 -13.04 142.95 TC 17 -13.05 142.96 1 17 9 262
1970 SP EA 06:00:00 TS -13.11 142.50 0 0 O________OP___ jtwc_sh SH231970 -13.10 142.50 15 -1 -13.10 142.50 TC 15 -13.13 142.50 1 15 9 259
1970 SP EA 08:00:00 TS -13.19 142.20 0 0 P________PO___ SH231970 -13.18 142.19 15 -1 -13.18 142.19 TC 15 -13.20 142.20 1 15 9 254
1970 SP EA 09:00:00 TS -13.24 142.05 0 0 P________PP___ SH231970 -13.23 142.04 15 -1 -13.23 142.04 TC 15 -13.25 142.06 1 15 9 250
1970 SP EA 12:00:00 TS -13.40 141.61 10 10 O________OP___ jtwc_sh SH231970 -13.40 141.60 15 -1 -13.40 141.60 TC 15 -13.40 141.63 1 15 9 249
1970 SP EA 15:00:00 TS -13.56 141.20 43 43 P________PP___ SH231970 -13.56 141.20 15 -1 -13.56 141.20 TC 15 -13.57 141.20 1 15 9 249
1970 SP EA 18:00:00 TS -13.71 140.79 78 78 O________OP___ jtwc_sh SH231970 -13.70 140.80 15 -1 -13.70 140.80 TC 15 -13.72 140.78 1 15 9 251
1970 SP EA 20:00:00 TS -13.79 140.50 108 108 P________PO___ SH231970 -13.79 140.50 15 -1 -13.79 140.50 TC 15 -13.80 140.50 1 15 9 255
1970 SP EA 21:00:00 TS -13.82 140.35 119 119 P________PP___ SH231970 -13.82 140.35 15 -1 -13.82 140.35 TC 15 -13.82 140.36 1 15 9 261
1970 SP EA 23:00:00 TS -13.86 140.04 1004 bom 161 161 P_____O__PP___ SH231970 -13.88 140.05 15 -1 -13.70 139.90 1004 -13.88 140.05 TC 15 -13.85 140.07 1 16 9 268
1970 SP EA 1970-03-16 00:00:00 TS -13.84 139.90 173 173 O_____P__OP_O_ jtwc_sh SH231970 -13.90 139.90 15 -1 -13.71 139.79 -13.90 139.90 TC 15 -13.86 139.93 1 16 -13.70 140.10 TC 15 1006 8 273
1970 SP EA 03:00:00 TS -13.83 139.52 216 216 P_____P__PP_P_ SH231970 -13.91 139.50 17 -1 -13.72 139.46 -13.91 139.50 TC 17 -13.87 139.51 1 17 -13.69 139.74 TC 15 1006 7 271
1970 SP EA 06:00:00 TS -13.82 139.15 243 212 O_____P__OP_O_ jtwc_sh SH231970 -13.90 139.10 20 -1 -13.74 139.13 -13.90 139.10 TC 20 -13.88 139.08 1 19 -13.70 139.40 TC 15 1006 7 269
1970 SP EA 08:00:00 TS -13.83 138.91 212 202 P_____P__PO_P_ SH231970 -13.92 138.80 20 -1 -13.76 138.91 -13.92 138.80 TC 20 -13.90 138.80 1 20 -13.73 139.19 TC 15 1006 7 265
1970 SP EA 09:00:00 TS -13.85 138.78 199 167 P_____P__PP_P_ SH231970 -13.93 138.65 20 -1 -13.77 138.81 -13.93 138.65 TC 20 -13.93 138.64 1 19 -13.74 139.09 TC 15 1006 8 262
1970 SP EA 11:00:00 TS -13.89 138.53 bom 167 157 P_____O__PP_P_ SH231970 -13.97 138.35 20 -1 -13.80 138.60 -13.97 138.35 TC 20 -13.99 138.33 1 18 -13.78 138.90 TC 15 1006 8 260
1970 SP EA 12:00:00 TS -13.91 138.40 157 123 O_____P__OP_O_ jtwc_sh SH231970 -14.00 138.20 20 -1 -13.82 138.50 -14.00 138.20 TC 20 -14.03 138.17 1 18 -13.80 138.80 TC 15 1006 7 258
1970 SP EA 15:00:00 TS -13.99 138.04 112 78 P_____P__PP_P_ SH231970 -14.10 137.79 17 -1 -13.87 138.20 -14.10 137.79 TC 17 -14.15 137.72 1 17 -13.84 138.50 TC 15 1006 7 257
1970 SP EA 18:00:00 TS -14.07 137.70 78 58 O_____P__OP_O_ jtwc_sh SH231970 -14.20 137.40 15 -1 -13.94 137.91 -14.20 137.40 TC 15 -14.25 137.32 1 15 -13.90 138.20 TC 15 1006 7 256
1970 SP EA 20:00:00 TS -14.12 137.47 58 48 P_____P__PO_P_ SH231970 -14.25 137.13 15 -1 -13.99 137.72 -14.25 137.13 TC 15 -14.30 137.10 1 15 -13.96 137.99 TC 15 1006 7 257
1970 SP EA 21:00:00 TS -14.14 137.37 48 15 P_____P__PP_P_ SH231970 -14.27 137.00 15 -1 -14.02 137.63 -14.27 137.00 TC 15 -14.30 137.01 1 15 -13.99 137.89 TC 15 1006 6 258
1970 SP EA 23:30:00 TS -14.19 137.13 1002 bom 15 15 P_____O__PP_P_ SH231970 -14.30 136.74 15 -1 -14.10 137.40 1002 -14.30 136.74 TC 15 -14.30 136.84 1 16 -14.08 137.65 TC 15 1006 5 257
1970 SP EA 1970-03-17 00:00:00 TS -14.20 137.09 15 0 O_____P__OP_O_ jtwc_sh SH231970 -14.30 136.70 15 -1 -14.12 137.35 1001 -14.30 136.70 TC 15 -14.29 136.81 1 16 -14.10 137.60 TC 15 1006 4 256
1970 SP EA 03:00:00 TS -14.25 136.92 0 0 P_____P__PP_P_ SH231970 -14.29 136.62 17 -1 -14.22 137.08 998 -14.29 136.62 TC 17 -14.27 136.67 1 17 -14.19 137.35 TC 15 1006 3 253
1970 SP EA 05:00:00 TS -14.28 136.82 996 bom 0 0 P_____O__PP_P_ SH231970 -14.29 136.61 19 -1 -14.30 136.90 996 -14.29 136.61 TC 19 -14.27 136.60 1 18 -14.26 137.19 TC 15 1006 3 247
1970 SP EA 06:00:00 TS -14.31 136.76 0 0 O_____P__OP_O_ jtwc_sh SH231970 -14.30 136.60 20 -1 -14.34 136.81 995 -14.30 136.60 TC 20 -14.27 136.57 1 19 -14.30 137.10 TC 15 1006 4 243
1970 SP EA 08:00:00 TS -14.37 136.63 11 11 P_____P__PO_P_ SH231970 -14.34 136.51 20 -1 -14.44 136.64 995 -14.34 136.51 TC 20 -14.30 136.50 1 20 -14.40 136.91 TC 15 1006 4 241
1970 SP EA 09:00:00 TS -14.41 136.56 11 11 P_____P__PP_P_ SH231970 -14.37 136.46 20 -1 -14.49 136.55 995 -14.37 136.46 TC 20 -14.34 136.46 1 20 -14.45 136.82 TC 15 1006 5 238
1970 SP EA 11:30:00 TS -14.53 136.37 bom 31 31 P_____I__PP_P_ SH231970 -14.47 136.32 20 -1 -14.60 136.30 995 -14.47 136.32 TC 20 -14.48 136.37 1 20 -14.58 136.55 TC 15 1006 5 237
1970 SP EA 12:00:00 TS -14.56 136.33 44 44 O_____P__OP_O_ jtwc_sh SH231970 -14.50 136.30 20 -1 -14.62 136.24 995 -14.50 136.30 TC 20 -14.51 136.35 1 20 -14.60 136.50 TC 15 1006 6 235
1970 SP EA 14:00:00 TS -14.66 136.18 995 bom 57 57 P_____O__PP_P_ SH231970 -14.63 136.24 20 -1 -14.70 136.00 995 4 -14.63 136.24 TC 20 -14.64 136.28 1 20 -14.67 136.27 TC 15 1006 6 234
1970 SP EA 15:00:00 TS -14.72 136.10 58 31 P_____P__PP_P_ SH231970 -14.71 136.21 20 -1 -14.75 135.87 995 -14.71 136.21 TC 20 -14.71 136.24 1 20 -14.70 136.15 TC 15 1006 6 235
1970 SP EA 18:00:00 TS -14.88 135.85 bom 31 11 O_____I__OP_O_ jtwc_sh SH231970 -14.90 136.10 20 -1 -14.90 135.50 996 -14.90 136.10 TC 20 -14.90 136.11 1 20 -14.80 135.80 TC 15 1006 6 240
1970 SP EA 20:00:00 TS -14.96 135.67 11 10 P_____P__PO_P_ SH231970 -14.96 135.96 20 -1 -14.96 135.25 997 -14.96 135.96 TC 20 -15.00 136.00 1 20 -14.89 135.55 TC 16 1006 6 250
1970 SP EA 21:00:00 TS -14.98 135.57 10 0 P_____P__PP_P_ SH231970 -14.97 135.88 20 -1 -14.99 135.14 997 -14.97 135.88 TC 20 -15.02 135.91 1 20 -14.94 135.43 TC 17 1006 5 252
1970 SP EA 23:30:00 TS -15.05 135.37 bom 0 0 P_____I__PP_P_ SH231970 -15.00 135.65 20 -1 -15.10 135.00 998 -15.00 135.65 TC 20 -15.06 135.67 1 20 -15.07 135.22 TC 19 1006 5 250
1970 SP EA 1970-03-18 00:00:00 TS -15.07 135.34 0 0 O_____P__OP_O_ jtwc_sh SH231970 -15.00 135.60 20 -1 -15.14 135.01 998 -15.00 135.60 TC 20 -15.06 135.61 1 20 -15.10 135.20 TC 20 1006 4 238
1970 SP EA 02:00:00 TS -15.13 135.23 999 bom 0 0 P_____O__PP_P_ SH231970 -15.03 135.36 20 -1 -15.30 135.10 999 -15.03 135.36 TC 20 -15.07 135.41 1 20 -15.21 135.20 TC 20 1006 3 233
1970 SP EA 03:00:00 TS -15.17 135.19 0 0 P_____P__PP_P_ SH231970 -15.04 135.25 20 -1 -15.36 135.14 -15.04 135.25 TC 20 -15.07 135.31 1 20 -15.26 135.23 TC 20 1006 2 216
1970 SP EA 06:00:00 TS -15.25 135.14 0 0 O_____P__OP_O_ jtwc_sh SH231970 -15.10 135.00 20 -1 -15.49 135.26 -15.10 135.00 TC 20 -15.08 135.08 1 20 -15.40 135.40 TC 20 1006 2 182
1970 SP EA 08:00:00 TS -15.31 135.17 0 0 P_____P__PO_P_ SH231970 -15.16 134.99 20 -1 -15.54 135.34 -15.16 134.99 TC 20 -15.10 135.00 1 20 -15.48 135.49 TC 20 1006 2 146
1970 SP EA 09:00:00 TS -15.35 135.21 0 0 P_____P__PP_P_ SH231970 -15.19 135.02 20 -1 -15.56 135.38 -15.19 135.02 TC 20 -15.13 135.00 1 19 -15.52 135.54 TC 20 1006 3 125
1970 SP EA 11:30:00 TS -15.43 135.34 bom 0 0 P_____O__PP_P_ SH231970 -15.28 135.17 20 -1 -15.60 135.50 -15.28 135.17 TC 20 -15.23 135.07 1 18 -15.59 135.67 TC 20 1006 4 123
1970 SP EA 12:00:00 TS -15.45 135.37 0 0 O_____P__OP_O_ jtwc_sh SH231970 -15.30 135.20 20 -1 -15.62 135.53 -15.30 135.20 TC 20 -15.26 135.09 1 18 -15.60 135.70 TC 20 1006 4 121
1970 SP EA 15:00:00 TS -15.54 135.54 0 0 P_____P__PP_P_ SH231970 -15.40 135.39 17 -1 -15.71 135.70 -15.40 135.39 TC 17 -15.40 135.29 1 17 -15.66 135.84 TC 20 1006 4 117
1970 SP EA 18:00:00 TS -15.63 135.74 0 0 O_____P__OP_O_ jtwc_sh SH231970 -15.50 135.60 15 -1 -15.78 135.88 -15.50 135.60 TC 15 -15.53 135.53 1 15 -15.70 136.00 TC 20 1006 4 114
1970 SP EA 20:00:00 TS -15.69 135.88 1000 bom 0 0 P_____O__PO_P_ SH231970 -15.58 135.73 15 -1 -15.80 136.00 1000 -15.58 135.73 TC 15 -15.60 135.70 1 15 -15.76 136.14 TC 18 1006 4 113
1970 SP EA 21:00:00 TS -15.71 135.94 0 0 P_____P__PP_P_ SH231970 -15.61 135.80 15 -1 -15.82 136.06 1000 -15.61 135.80 TC 15 -15.63 135.77 1 15 -15.79 136.21 TC 17 1006 4 105
1970 SP EA 23:30:00 TS -15.75 136.10 bom 0 0 P_____I__PP_P_ SH231970 -15.69 135.97 15 -1 -15.80 136.20 1000 -15.69 135.97 TC 15 -15.68 135.94 1 15 -15.81 136.37 TC 15 1006 4 99
1970 SP EA 1970-03-19 00:00:00 TS -15.74 136.13 0 0 O_____P__OP_O_ jtwc_sh SH231970 -15.70 136.00 15 -1 -15.77 136.22 1000 -15.70 136.00 TC 15 -15.69 135.97 1 15 -15.80 136.40 TC 15 1006 3 71
1970 SP EA 02:00:00 TS -15.70 136.24 1000 bom 0 0 P_____O__PP_P_ SH231970 -15.72 136.14 15 -1 -15.60 136.30 1000 -15.72 136.14 TC 15 -15.72 136.11 1 15 -15.69 136.47 TC 15 1006 4 65
1970 SP EA 03:00:00 TS -15.67 136.30 0 0 P_____P__PP_P_ SH231970 -15.72 136.21 15 -1 -15.52 136.33 -15.72 136.21 TC 15 -15.72 136.18 1 15 -15.61 136.49 TC 15 1006 4 59
1970 SP EA 05:00:00 TS -15.61 136.40 bom 10 10 P_____O__PP_P_ SH231970 -15.71 136.34 15 -1 -15.40 136.40 -15.71 136.34 TC 15 -15.73 136.31 1 15 -15.46 136.55 TC 15 1006 4 59
1970 SP EA 06:00:00 TS -15.58 136.46 11 11 O_____P__OP_O_ jtwc_sh SH231970 -15.70 136.40 15 -1 -15.36 136.46 -15.70 136.40 TC 15 -15.72 136.38 1 15 -15.40 136.60 TC 15 1006 4 67
1970 SP EA 08:00:00 TS -15.53 136.59 24 24 P_____P__PO_P_ SH231970 -15.69 136.51 15 -1 -15.31 136.60 -15.69 136.51 TC 15 -15.70 136.50 1 15 -15.34 136.75 TC 15 1006 4 71
1970 SP EA 09:00:00 TS -15.51 136.65 30 30 P_____P__PP_P_ SH231970 -15.67 136.56 15 -1 -15.30 136.68 -15.67 136.56 TC 15 -15.68 136.56 1 15 -15.32 136.84 TC 15 1006 4 71
1970 SP EA 11:30:00 TS -15.46 136.81 bom 35 35 P_____O__PP_P_ SH231970 -15.62 136.68 15 -1 -15.30 136.90 -15.62 136.68 TC 15 -15.60 136.70 1 15 -15.30 137.06 TC 15 1006 4 71
1970 SP EA 12:00:00 TS -15.45 136.84 46 46 O_____P__OP_O_ jtwc_sh SH231970 -15.60 136.70 15 -1 -15.29 136.94 -15.60 136.70 TC 15 -15.58 136.73 1 15 -15.30 137.10 TC 15 1006 4 63
1970 SP EA 15:00:00 TS -15.35 137.03 55 55 P_____P__PP_P_ SH231970 -15.44 136.86 15 -1 -15.26 137.17 -15.44 136.86 TC 15 -15.47 136.88 1 15 -15.30 137.31 TC 15 1006 4 63
1970 SP EA 18:00:00 TS -15.27 137.20 77 77 O_____P__OP_O_ jtwc_sh SH231970 -15.30 137.00 15 -1 -15.23 137.38 -15.30 137.00 TC 15 -15.36 137.02 1 15 -15.30 137.50 TC 15 1006 3 68
1970 SP EA 20:00:00 TS -15.25 137.30 90 90 P_____P__PO_P_ SH231970 -15.28 137.07 15 -1 -15.21 137.51 -15.28 137.07 TC 15 -15.30 137.10 1 15 -15.26 137.63 TC 15 1006 3 77
1970 SP EA 21:00:00 TS -15.24 137.35 92 92 P_____P__PP_P_ SH231970 -15.28 137.11 15 -1 -15.21 137.57 -15.28 137.11 TC 15 -15.29 137.14 1 15 -15.23 137.70 TC 15 1006 3 89
1970 SP EA 23:30:00 TS -15.24 137.47 bom 95 95 P_____O__PP_P_ SH231970 -15.30 137.18 15 -1 -15.20 137.70 -15.30 137.18 TC 15 -15.27 137.24 1 16 -15.20 137.87 TC 15 1006 3 92
1970 SP EA 1970-03-20 00:00:00 TS -15.25 137.50 95 84 O_____P__OP_O_ jtwc_sh SH231970 -15.30 137.20 15 -1 -15.20 137.72 -15.30 137.20 TC 15 -15.27 137.25 1 16 -15.20 137.90 TC 15 1006 3 101
1970 SP EA 02:00:00 TS -15.26 137.59 999 bom 89 89 P_____O__PP_P_ SH231970 -15.30 137.27 16 -1 -15.20 137.80 999 -15.30 137.27 TC 16 -15.28 137.32 1 17 -15.23 138.02 TC 15 1006 3 104
1970 SP EA 03:00:00 TS -15.28 137.64 89 89 P_____P__PP_P_ SH231970 -15.30 137.30 17 -1 -15.22 137.86 -15.30 137.30 TC 17 -15.28 137.35 1 17 -15.26 138.09 TC 15 1006 4 111
1970 SP EA 05:00:00 TS -15.33 137.77 99 92 P_____P__PP_P_ SH231970 -15.30 137.37 19 -1 -15.32 138.02 -15.30 137.37 TC 19 -15.29 137.42 1 18 -15.35 138.22 TC 15 1006 5 109
1970 SP EA 06:00:00 TS -15.36 137.89 92 92 O_____P__OP_O_ jtwc_sh SH231970 -15.30 137.40 20 -1 -15.39 138.12 -15.30 137.40 TC 20 -15.30 137.44 1 19 -15.40 138.30 TC 15 1006 7 111
1970 SP EA 08:00:00 TS -15.45 138.10 89 89 P_____P__PO_P_ SH231970 -15.31 137.47 20 -1 -15.54 138.34 -15.31 137.47 TC 20 -15.30 137.50 1 20 -15.52 138.48 TC 15 1006 7 113
1970 SP EA 09:00:00 TS -15.50 138.23 94 92 P_____P__PP_P_ SH231970 -15.31 137.50 20 -1 -15.63 138.45 -15.31 137.50 TC 20 -15.30 137.53 1 19 -15.58 138.58 TC 15 1006 7 114
1970 SP EA 11:00:00 TS -15.60 138.44 bom 100 100 P_____O__PP_P_ SH231970 -15.31 137.57 20 -1 -15.80 138.70 -15.31 137.57 TC 20 -15.29 137.58 1 17 -15.73 138.79 TC 15 1006 6 115
1970 SP EA 12:00:00 TS -15.63 138.52 108 108 O_____P__OP_O_ jtwc_sh SH231970 -15.30 137.60 20 -1 -15.88 138.82 -15.30 137.60 TC 20 -15.29 137.61 1 16 -15.80 138.90 TC 15 1006 6 113
1970 SP EA 15:00:00 TS -15.76 138.83 113 112 P_____P__PP_P_ SH231970 -15.17 137.54 17 -1 -16.10 139.20 -15.26 137.70 TC 17 -15.26 137.68 1 14 -16.00 139.24 TC 15 1006 8 114
1970 SP EA 17:00:00 TS -15.89 139.13 112 105 P_____P__PP_P_ SH231970 -15.15 137.65 15 -1 -16.24 139.45 -15.22 137.77 TC 15 -15.24 137.73 1 12 -16.13 139.48 TC 15 1006 12 115
1970 SP EA 18:00:00 TS -16.01 139.39 109 104 O_____P__OP_O_ jtwc_sh SH231970 -15.20 137.80 15 -1 -16.30 139.57 -15.20 137.80 TC 15 -15.23 137.75 1 11 -16.20 139.60 TC 15 1006 14 117
1970 SP EA 20:00:00 TS -16.21 139.79 110 108 P_____P___O_P_ SH231970 -15.53 138.50 18 -1 -16.42 139.82 TC -15.20 137.80 1 10 -16.33 139.86 TC 15 1006 13 117
1970 SP EA 21:00:00 TS -16.29 139.97 115 115 P_____P_____P_ SH231970 -15.75 138.93 20 -1 -16.48 139.95 TC 1 -16.40 139.99 TC 15 1006 7 114
1970 SP EA 23:00:00 TS -16.34 140.10 bom 123 123 P_____O_____P_ SH231970 -16.15 139.77 23 -1 -16.60 140.20 TC 1 -16.53 140.26 TC 15 1006 3 102
1970 SP EA 1970-03-21 00:00:00 TS -16.32 140.13 123 105 O___________O_ jtwc_sh SH251970 -16.30 140.10 25 -1 1 -16.60 140.40 TC 15 1006 3 86
1970 SP EA 03:00:00 TS -16.33 140.28 105 96 P_____________ SH251970 -16.40 140.44 25 -1 1 TC 3 87
1970 SP EA 05:00:00 TS -16.31 140.42 96 86 P_____________ SH251970 -16.34 140.48 25 -1 1 TC 4 81
1970 SP EA 06:00:00 TS -16.29 140.49 86 67 O_____________ jtwc_sh SH251970 -16.30 140.50 25 -1 1 5 72
1970 SP EA 09:00:00 TS -16.21 140.74 67 42 P_____________ SH251970 -16.21 140.74 22 -1 5 68
1970 SP EA 12:00:00 TS -16.10 141.01 42 10 O_____________ jtwc_sh SH251970 -16.10 141.00 20 -1 6 68
1970 SP EA 15:00:00 TS -15.99 141.30 10 0 P_____________ SH251970 -15.99 141.30 17 -1 6 69
1970 SP EA 17:00:00 TS -15.92 141.50 0 0 P_____________ SH251970 -15.93 141.50 15 -1 6 71
1970 SP EA 18:00:00 TS -15.89 141.59 0 0 O_____________ jtwc_sh SH251970 -15.90 141.60 15 -1 5 74
1970 SP EA 21:00:00 TS -15.83 141.84 0 0 P_____________ SH251970 -15.84 141.86 15 -1 5 77
1970 SP EA 1970-03-22 00:00:00 TS -15.78 142.08 0 0 O_____________ jtwc_sh SH251970 -15.80 142.10 15 -1 5 78
1970 SP EA 03:00:00 TS -15.72 142.32 0 0 P_____________ SH251970 -15.73 142.33 15 -1 5 79
1970 SP EA 05:00:00 TS -15.70 142.50 0 0 P_____________ SH251970 -15.71 142.50 15 -1 6 85
1970 SP EA 06:00:00 TS -15.70 142.61 0 0 O_____________ jtwc_sh SH251970 -15.70 142.60 15 -1 7 93
1970 SP EA 09:00:00 TS -15.73 142.98 0 0 P_____________ SH251970 -15.73 142.97 15 -1 8 97
1970 SP EA 12:00:00 TS -15.79 143.41 0 0 O_____________ jtwc_sh SH251970 -15.80 143.40 15 -1 9 98
1970 SP EA 15:00:00 NR -15.85 143.89 0 0 ______________ SH251970 -1 9 98
1970 SP EA 17:00:00 NR -15.90 144.20 0 ______________ SH251970 -1 9 99